Terminal Aerodrome Forecast
Issued by NWS Albany, NY

Home | Current Version | Previous Version | Text Only | Print | Product List | Glossary On
Versions: 1 2 3 4 5 6 7 8 9 10 11 12 13 14 15 16 17 18 19 20
000
FTUS41 KALY 262300
TAFGFL
TAF
KGFL 262338Z 2700/2724 01009KT 1SM -SN BR OVC015
      TEMPO 2700/2704 1/2SM SN FZFG VV007
     FM270400 35010G15KT 2SM -SN BR OVC008
     FM270700 34007KT 3SM -SN BR OVC012
     FM271000 34006KT P6SM VCSH OVC025
     FM271500 34005KT P6SM VCSH OVC035=

USA.gov is the U.S. government's official web portal to all federal, state and local government web resources and services.